createdAt,value
2017-12-20T00:00:53.834Z,97.41
2017-12-20T00:02:46.741Z,97.22
2017-12-20T00:03:46.740Z,96.84
2017-12-20T00:05:39.645Z,96.84
2017-12-20T00:06:39.684Z,96.65
2017-12-20T00:08:32.586Z,96.84
2017-12-20T00:09:32.596Z,96.65
2017-12-20T00:11:25.482Z,96.55
2017-12-20T00:12:25.496Z,96.93
2017-12-20T00:14:18.413Z,96.65
2017-12-20T00:15:18.420Z,96.93
2017-12-20T00:17:11.335Z,96.74
2017-12-20T00:18:11.336Z,96.84
2017-12-20T00:20:04.229Z,96.45
2017-12-20T00:21:04.245Z,96.55
2017-12-20T00:22:57.162Z,96.08
2017-12-20T00:23:57.161Z,96.08
2017-12-20T00:25:50.077Z,96.17
2017-12-20T00:26:50.096Z,96.31
2017-12-20T00:28:43.020Z,96.36
2017-12-20T00:29:43.021Z,96.36
2017-12-20T00:31:35.925Z,96.36
2017-12-20T00:32:35.942Z,96.60
2017-12-20T00:34:28.862Z,95.84
2017-12-20T00:35:28.861Z,95.51
2017-12-20T00:37:21.779Z,95.60
2017-12-20T00:38:21.776Z,95.89
2017-12-20T00:40:14.677Z,95.70
2017-12-20T00:41:14.692Z,95.65
2017-12-20T00:43:07.609Z,95.70
2017-12-20T00:44:07.611Z,95.70
2017-12-20T00:46:00.514Z,95.51
2017-12-20T00:47:00.532Z,95.98
2017-12-20T00:48:53.444Z,95.70
2017-12-20T00:49:53.441Z,96.65
2017-12-20T00:51:46.338Z,96.26
2017-12-20T00:52:46.358Z,96.26
2017-12-20T00:54:39.271Z,96.08
2017-12-20T00:55:39.270Z,96.45
2017-12-20T00:57:32.188Z,96.26
2017-12-20T00:58:32.187Z,96.08
2017-12-20T01:00:25.086Z,96.08
2017-12-20T01:01:25.104Z,96.26
2017-12-20T01:03:18.022Z,96.65
2017-12-20T01:04:18.020Z,96.55
2017-12-20T01:06:10.920Z,96.55
2017-12-20T01:07:10.935Z,96.08
2017-12-20T01:09:03.853Z,96.45
2017-12-20T01:10:03.851Z,95.70
2017-12-20T01:11:56.748Z,96.55
2017-12-20T01:12:56.766Z,96.36
2017-12-20T01:14:49.681Z,96.26
2017-12-20T01:15:49.680Z,96.17
2017-12-20T01:17:42.597Z,95.70
2017-12-20T01:18:42.597Z,95.89
2017-12-20T01:20:35.505Z,95.41
2017-12-20T01:21:35.522Z,95.60
2017-12-20T01:23:28.446Z,96.36
2017-12-20T01:24:28.446Z,96.17
2017-12-20T01:26:21.345Z,96.65
2017-12-20T01:27:21.362Z,96.26
2017-12-20T01:29:14.278Z,96.08
2017-12-20T01:30:14.278Z,96.08
2017-12-20T01:32:07.179Z,95.89
2017-12-20T01:33:07.198Z,95.79
2017-12-20T01:35:00.113Z,96.93
2017-12-20T01:36:00.111Z,96.93
2017-12-20T01:37:53.026Z,96.17
2017-12-20T01:38:53.026Z,96.65
2017-12-20T01:40:45.925Z,96.08
2017-12-20T01:41:45.941Z,95.89
2017-12-20T01:43:38.867Z,96.45
2017-12-20T01:44:38.861Z,96.36
2017-12-20T01:46:31.761Z,96.08
2017-12-20T01:47:31.779Z,96.93
2017-12-20T01:49:24.697Z,96.65
2017-12-20T01:50:24.695Z,96.65
2017-12-20T01:52:17.593Z,96.08
2017-12-20T01:53:17.612Z,96.55
2017-12-20T01:55:10.527Z,97.22
2017-12-20T01:56:10.524Z,96.93
2017-12-20T01:58:03.442Z,96.08
2017-12-20T01:59:03.442Z,97.22
2017-12-20T02:00:56.344Z,96.65
2017-12-20T02:01:56.357Z,96.84
2017-12-20T02:03:49.274Z,96.74
2017-12-20T02:04:49.274Z,97.03
2017-12-20T02:06:42.171Z,96.93
2017-12-20T02:07:42.188Z,97.41
2017-12-20T02:09:35.104Z,96.84
2017-12-20T02:10:35.104Z,96.65
2017-12-20T02:12:28.022Z,96.84
2017-12-20T02:13:28.017Z,96.84
2017-12-20T02:15:20.933Z,96.74
2017-12-20T02:16:20.935Z,96.93
2017-12-20T02:18:13.851Z,96.55
2017-12-20T02:19:13.849Z,96.45
2017-12-20T02:21:06.773Z,96.74
2017-12-20T02:22:06.774Z,97.31
2017-12-20T02:23:59.714Z,97.22
2017-12-20T02:24:59.691Z,97.31
2017-12-20T02:26:52.610Z,97.12
2017-12-20T02:27:52.618Z,97.41
2017-12-20T02:29:45.536Z,97.03
2017-12-20T02:30:45.535Z,97.31
2017-12-20T02:32:38.436Z,97.22
2017-12-20T02:33:38.450Z,97.03
2017-12-20T02:35:31.370Z,97.31
2017-12-20T02:36:31.369Z,97.12
2017-12-20T02:38:24.288Z,96.36
2017-12-20T02:39:24.285Z,96.84
2017-12-20T02:41:17.184Z,97.12
2017-12-20T02:42:17.201Z,97.12
2017-12-20T02:44:10.118Z,97.31
2017-12-20T02:45:10.120Z,96.36
2017-12-20T02:47:03.014Z,96.74
2017-12-20T02:48:03.031Z,96.74
2017-12-20T02:49:55.948Z,96.65
2017-12-20T02:50:55.947Z,97.03
2017-12-20T02:52:48.975Z,96.65
2017-12-20T02:53:48.992Z,97.03
2017-12-20T02:55:41.932Z,96.74
2017-12-20T02:56:41.936Z,96.55
2017-12-20T02:58:34.850Z,96.84
2017-12-20T02:59:34.847Z,96.65
2017-12-20T03:01:27.745Z,96.93
2017-12-20T03:02:27.764Z,97.03
2017-12-20T03:04:20.681Z,96.93
2017-12-20T03:05:20.678Z,96.08
2017-12-20T03:07:13.578Z,96.74
2017-12-20T03:08:13.598Z,96.65
2017-12-20T03:10:06.513Z,96.93
2017-12-20T03:11:06.513Z,96.65
2017-12-20T03:12:59.412Z,96.74
2017-12-20T03:13:59.430Z,96.74
2017-12-20T03:15:52.351Z,96.84
2017-12-20T03:16:52.345Z,96.84
2017-12-20T03:18:45.262Z,97.03
2017-12-20T03:19:45.261Z,96.93
2017-12-20T03:21:38.162Z,96.26
2017-12-20T03:22:38.181Z,96.26
2017-12-20T03:24:31.097Z,96.36
2017-12-20T03:25:31.095Z,96.08
2017-12-20T03:27:23.992Z,96.26
2017-12-20T03:28:24.011Z,96.55
2017-12-20T03:30:16.928Z,96.08
2017-12-20T03:31:16.930Z,96.26
2017-12-20T03:33:09.828Z,96.36
2017-12-20T03:34:09.845Z,96.26
2017-12-20T03:36:02.761Z,96.26
2017-12-20T03:37:02.760Z,96.55
2017-12-20T03:38:55.675Z,96.17
2017-12-20T03:39:55.674Z,96.26
2017-12-20T03:41:48.568Z,96.36
2017-12-20T03:42:48.586Z,95.89
2017-12-20T03:44:41.711Z,96.65
2017-12-20T03:45:41.705Z,95.70
2017-12-20T03:47:34.601Z,96.36
2017-12-20T03:48:34.619Z,96.26
2017-12-20T03:50:27.536Z,96.55
2017-12-20T03:51:27.533Z,96.36
2017-12-20T03:53:20.440Z,96.55
2017-12-20T03:54:20.448Z,96.55
2017-12-20T03:56:13.384Z,95.79
2017-12-20T03:57:13.366Z,96.17
2017-12-20T03:59:06.284Z,95.98
2017-12-20T04:00:06.283Z,95.70
2017-12-20T04:01:59.185Z,95.79
2017-12-20T04:02:59.202Z,95.70
2017-12-20T04:04:52.139Z,95.70
2017-12-20T04:05:52.132Z,95.60
2017-12-20T04:07:45.036Z,95.89
2017-12-20T04:08:45.045Z,95.89
2017-12-20T04:10:37.966Z,95.89
2017-12-20T04:11:37.964Z,95.70
2017-12-20T04:13:30.862Z,95.70
2017-12-20T04:14:30.879Z,95.79
2017-12-20T04:16:23.797Z,95.79
2017-12-20T04:17:23.799Z,96.08
2017-12-20T04:19:16.733Z,96.08
2017-12-20T04:20:16.712Z,95.89
2017-12-20T04:22:09.611Z,96.08
2017-12-20T04:23:09.629Z,95.89
2017-12-20T04:25:02.549Z,96.08
2017-12-20T04:26:02.545Z,95.41
2017-12-20T04:27:55.446Z,95.51
2017-12-20T04:28:55.462Z,95.70
2017-12-20T04:30:48.382Z,95.70
2017-12-20T04:31:48.378Z,95.41
2017-12-20T04:33:41.280Z,95.41
2017-12-20T04:34:41.296Z,95.41
2017-12-20T04:36:34.213Z,95.70
2017-12-20T04:37:34.231Z,95.70
2017-12-20T04:39:27.134Z,95.60
2017-12-20T04:40:27.135Z,95.32
2017-12-20T04:42:20.031Z,95.51
2017-12-20T04:43:20.048Z,95.51
2017-12-20T04:45:13.128Z,95.32
2017-12-20T04:46:13.132Z,95.41
2017-12-20T04:48:06.030Z,95.60
2017-12-20T04:49:06.048Z,95.51
2017-12-20T04:50:58.967Z,95.51
2017-12-20T04:51:58.966Z,95.41
2017-12-20T04:53:51.869Z,95.12
2017-12-20T04:54:51.886Z,95.70
2017-12-20T04:56:44.808Z,95.32
2017-12-20T04:57:44.802Z,95.41
2017-12-20T04:59:37.717Z,95.60
2017-12-20T05:00:37.715Z,95.79
2017-12-20T05:02:30.615Z,95.89
2017-12-20T05:03:30.633Z,95.70
2017-12-20T05:05:23.560Z,96.26
2017-12-20T05:06:23.548Z,96.65
2017-12-20T05:08:16.445Z,96.93
2017-12-20T05:09:16.461Z,97.03
2017-12-20T05:11:09.379Z,96.55
2017-12-20T05:12:09.379Z,97.31
2017-12-20T05:14:02.277Z,97.22
2017-12-20T05:15:02.299Z,97.22
2017-12-20T05:16:55.211Z,97.12
2017-12-20T05:17:55.210Z,97.12
2017-12-20T05:19:48.126Z,96.84
2017-12-20T05:20:48.142Z,96.84
2017-12-20T05:22:41.516Z,96.93
2017-12-20T05:23:41.538Z,96.93
2017-12-20T05:25:34.458Z,97.03
2017-12-20T05:26:34.458Z,97.31
2017-12-20T05:28:27.357Z,97.69
2017-12-20T05:29:27.375Z,97.41
2017-12-20T05:31:20.317Z,97.22
2017-12-20T05:32:20.309Z,97.03
2017-12-20T05:34:13.206Z,97.60
2017-12-20T05:35:13.225Z,97.50
2017-12-20T05:37:06.136Z,97.22
2017-12-20T05:38:06.135Z,97.03
2017-12-20T05:39:59.055Z,97.31
2017-12-20T05:40:59.050Z,96.36
2017-12-20T05:42:51.949Z,96.65
2017-12-20T05:43:51.966Z,96.65
2017-12-20T05:45:44.883Z,96.74
2017-12-20T05:46:44.881Z,96.74
2017-12-20T05:48:37.778Z,97.03
2017-12-20T05:49:37.795Z,96.65
2017-12-20T05:51:30.719Z,96.74
2017-12-20T05:52:30.714Z,96.84
2017-12-20T05:54:23.613Z,97.31
2017-12-20T05:55:23.628Z,96.84
2017-12-20T05:57:16.549Z,96.65
2017-12-20T05:58:16.544Z,96.65
2017-12-20T06:00:09.464Z,96.84
2017-12-20T06:01:09.460Z,97.12
2017-12-20T06:03:02.360Z,96.93
2017-12-20T06:04:02.382Z,96.65
2017-12-20T06:05:55.295Z,95.79
2017-12-20T06:06:55.326Z,96.36
2017-12-20T06:08:48.196Z,96.26
2017-12-20T06:09:48.208Z,96.36
2017-12-20T06:11:41.143Z,95.98
2017-12-20T06:12:41.146Z,96.17
2017-12-20T06:14:34.035Z,96.26
2017-12-20T06:15:34.052Z,96.17
2017-12-20T06:17:26.974Z,96.55
2017-12-20T06:18:26.978Z,96.55
2017-12-20T06:20:19.892Z,96.55
2017-12-20T06:21:19.890Z,96.65
2017-12-20T06:23:12.788Z,96.26
2017-12-20T06:24:12.806Z,95.79
2017-12-20T06:26:05.721Z,95.98
2017-12-20T06:27:05.721Z,95.70
2017-12-20T06:28:58.620Z,95.70
2017-12-20T06:29:58.638Z,95.79
2017-12-20T06:31:51.557Z,95.60
2017-12-20T06:32:51.556Z,95.60
2017-12-20T06:34:44.464Z,95.51
2017-12-20T06:35:44.472Z,95.70
2017-12-20T06:37:37.393Z,95.70
2017-12-20T06:38:37.391Z,96.17
2017-12-20T06:40:30.307Z,96.26
2017-12-20T06:41:30.306Z,96.17
2017-12-20T06:43:23.221Z,96.08
2017-12-20T06:44:23.224Z,95.70
2017-12-20T06:46:16.138Z,95.70
2017-12-20T06:47:16.137Z,96.08
2017-12-20T06:49:09.038Z,95.89
2017-12-20T06:50:09.057Z,95.89
2017-12-20T06:52:01.972Z,96.17
2017-12-20T06:53:01.972Z,95.89
2017-12-20T06:54:54.872Z,95.79
2017-12-20T06:55:54.889Z,95.89
2017-12-20T06:57:47.814Z,95.70
2017-12-20T06:58:47.804Z,95.94
2017-12-20T07:00:40.727Z,95.51
2017-12-20T07:01:40.727Z,95.70
2017-12-20T07:03:33.624Z,95.79
2017-12-20T07:04:33.642Z,95.79
2017-12-20T07:06:26.565Z,95.79
2017-12-20T07:07:26.557Z,95.89
2017-12-20T07:09:19.470Z,95.98
2017-12-20T07:10:19.477Z,95.70
2017-12-20T07:12:12.485Z,95.60
2017-12-20T07:13:12.392Z,95.70
2017-12-20T07:15:05.292Z,95.94
2017-12-20T07:16:05.310Z,95.60
2017-12-20T07:17:58.227Z,95.70
2017-12-20T07:18:58.227Z,95.70
2017-12-20T07:20:51.145Z,95.98
2017-12-20T07:21:51.143Z,96.08
2017-12-20T07:23:44.044Z,95.89
2017-12-20T07:24:44.060Z,95.51
2017-12-20T07:26:36.997Z,95.89
2017-12-20T07:27:36.979Z,95.84
2017-12-20T07:29:29.886Z,95.65
2017-12-20T07:30:29.892Z,95.65
2017-12-20T07:32:22.811Z,96.17
2017-12-20T07:33:22.813Z,96.22
2017-12-20T07:35:15.716Z,96.17
2017-12-20T07:36:15.730Z,95.94
2017-12-20T07:38:08.651Z,95.56
2017-12-20T07:39:08.651Z,95.36
2017-12-20T07:41:01.569Z,95.36
2017-12-20T07:42:01.573Z,95.65
2017-12-20T07:43:54.473Z,95.46
2017-12-20T07:44:54.492Z,96.22
2017-12-20T07:46:47.413Z,95.46
2017-12-20T07:47:47.412Z,95.75
2017-12-20T07:49:40.309Z,96.22
2017-12-20T07:50:40.330Z,95.46
2017-12-20T07:52:33.246Z,96.03
2017-12-20T07:53:33.244Z,96.31
2017-12-20T07:55:26.142Z,95.94
2017-12-20T07:56:26.162Z,96.22
2017-12-20T07:58:19.078Z,95.75
2017-12-20T07:59:19.077Z,95.46
2017-12-20T08:01:11.995Z,95.75
2017-12-20T08:02:11.994Z,95.46
2017-12-20T08:04:04.890Z,95.65
2017-12-20T08:05:04.933Z,95.84
2017-12-20T08:06:57.831Z,95.94
2017-12-20T08:07:57.832Z,95.36
2017-12-20T08:09:50.727Z,95.56
2017-12-20T08:10:50.751Z,95.65
2017-12-20T08:12:44.660Z,95.75
2017-12-20T08:13:44.667Z,95.65
2017-12-20T08:15:37.560Z,96.03
2017-12-20T08:16:37.579Z,95.75
2017-12-20T08:18:30.497Z,95.94
2017-12-20T08:19:30.497Z,95.36
2017-12-20T08:21:23.415Z,95.65
2017-12-20T08:22:23.428Z,95.65
2017-12-20T08:24:16.317Z,95.46
2017-12-20T08:25:16.335Z,95.56
2017-12-20T08:27:09.250Z,95.75
2017-12-20T08:28:09.249Z,95.65
2017-12-20T08:30:02.155Z,95.36
2017-12-20T08:31:02.175Z,95.65
2017-12-20T08:32:55.092Z,95.94
2017-12-20T08:33:55.093Z,95.17
2017-12-20T08:35:47.988Z,95.17
2017-12-20T08:36:48.006Z,95.46
2017-12-20T08:38:40.928Z,95.17
2017-12-20T08:39:40.931Z,95.46
2017-12-20T08:41:33.844Z,95.27
2017-12-20T08:42:33.843Z,95.65
2017-12-20T08:44:26.745Z,95.36
2017-12-20T08:45:26.762Z,95.65
2017-12-20T08:47:19.684Z,95.46
2017-12-20T08:48:19.681Z,95.56
2017-12-20T08:50:12.589Z,95.46
2017-12-20T08:51:12.597Z,95.22
2017-12-20T08:53:05.525Z,95.56
2017-12-20T08:54:05.518Z,95.36
2017-12-20T08:55:58.432Z,95.51
2017-12-20T08:56:58.435Z,95.70
2017-12-20T08:58:51.370Z,95.32
2017-12-20T08:59:51.353Z,95.41
2017-12-20T09:01:44.278Z,94.74
2017-12-20T09:02:44.270Z,94.93
2017-12-20T09:04:37.171Z,94.60
2017-12-20T09:05:37.188Z,95.08
2017-12-20T09:07:30.110Z,94.51
2017-12-20T09:08:30.107Z,94.79
2017-12-20T09:10:23.008Z,95.27
2017-12-20T09:11:23.026Z,94.60
2017-12-20T09:13:15.945Z,94.89
2017-12-20T09:14:15.949Z,94.70
2017-12-20T09:16:08.847Z,94.70
2017-12-20T09:17:08.863Z,95.75
2017-12-20T09:19:01.782Z,95.36
2017-12-20T09:20:01.782Z,95.56
2017-12-20T09:21:54.761Z,95.36
2017-12-20T09:22:54.700Z,95.60
2017-12-20T09:24:47.602Z,95.41
2017-12-20T09:25:47.620Z,95.41
2017-12-20T09:27:40.542Z,95.65
2017-12-20T09:28:40.543Z,95.70
2017-12-20T09:30:33.441Z,95.70
2017-12-20T09:31:33.460Z,95.60
2017-12-20T09:33:26.381Z,95.51
2017-12-20T09:34:26.381Z,95.60
2017-12-20T09:36:19.284Z,95.41
2017-12-20T09:37:19.316Z,95.41
2017-12-20T09:39:12.223Z,94.84
2017-12-20T09:40:12.222Z,95.03
2017-12-20T09:42:05.143Z,95.03
2017-12-20T09:43:05.151Z,94.74
2017-12-20T09:44:58.048Z,94.84
2017-12-20T09:45:58.066Z,94.74
2017-12-20T09:47:50.993Z,94.37
2017-12-20T09:48:50.987Z,95.03
2017-12-20T09:50:43.888Z,94.74
2017-12-20T09:51:43.907Z,94.27
2017-12-20T09:53:36.829Z,94.65
2017-12-20T09:54:36.829Z,94.84
2017-12-20T09:56:29.748Z,94.93
2017-12-20T09:57:29.769Z,94.74
2017-12-20T09:59:22.689Z,94.84
2017-12-20T10:00:22.693Z,95.41
2017-12-20T10:02:15.631Z,95.51
2017-12-20T10:03:15.612Z,95.89
2017-12-20T10:05:08.517Z,94.65
2017-12-20T10:06:08.534Z,94.65
2017-12-20T10:08:01.455Z,94.74
2017-12-20T10:09:01.456Z,94.74
2017-12-20T10:10:54.392Z,94.84
2017-12-20T10:11:54.412Z,94.93
2017-12-20T10:13:47.336Z,95.03
2017-12-20T10:14:47.338Z,95.03
2017-12-20T10:16:40.248Z,94.84
2017-12-20T10:17:40.262Z,94.93
2017-12-20T10:19:33.187Z,94.74
2017-12-20T10:20:33.187Z,94.79
2017-12-20T10:22:26.118Z,94.84
2017-12-20T10:23:26.117Z,94.42
2017-12-20T10:25:19.018Z,94.03
2017-12-20T10:26:19.035Z,93.98
2017-12-20T10:28:11.964Z,94.37
2017-12-20T10:29:11.962Z,94.37
2017-12-20T10:31:04.863Z,94.18
2017-12-20T10:32:04.891Z,94.08
2017-12-20T10:33:57.910Z,94.37
2017-12-20T10:34:57.909Z,94.08
2017-12-20T10:36:50.848Z,94.84
2017-12-20T10:37:50.860Z,94.84
2017-12-20T10:39:43.812Z,94.74
2017-12-20T10:40:43.813Z,94.84
2017-12-20T10:42:36.771Z,94.74
2017-12-20T10:43:36.765Z,94.56
2017-12-20T10:45:29.702Z,94.37
2017-12-20T10:46:29.722Z,94.46
2017-12-20T10:48:22.675Z,94.08
2017-12-20T10:49:22.675Z,94.46
2017-12-20T10:51:15.609Z,94.46
2017-12-20T10:52:15.651Z,94.74
2017-12-20T10:54:08.585Z,95.22
2017-12-20T10:55:08.584Z,94.56
2017-12-20T10:57:01.519Z,94.74
2017-12-20T10:58:01.537Z,95.22
2017-12-20T10:59:55.004Z,95.22
2017-12-20T11:00:55.003Z,95.41
2017-12-20T11:02:47.963Z,95.51
2017-12-20T11:03:47.958Z,95.60
2017-12-20T11:05:40.895Z,95.98
2017-12-20T11:06:40.917Z,96.08
2017-12-20T11:08:33.877Z,95.89
2017-12-20T11:09:33.868Z,95.98
2017-12-20T11:11:26.803Z,96.46
2017-12-20T11:12:26.819Z,96.46
2017-12-20T11:14:19.776Z,96.17
2017-12-20T11:15:19.774Z,96.46
2017-12-20T11:17:12.710Z,96.17
2017-12-20T11:18:12.730Z,96.08
2017-12-20T11:20:05.685Z,96.17
2017-12-20T11:21:05.687Z,96.74
2017-12-20T11:22:58.659Z,97.13
2017-12-20T11:23:58.638Z,96.55
2017-12-20T11:25:51.572Z,97.13
2017-12-20T11:26:51.596Z,96.74
2017-12-20T11:28:44.561Z,97.13
2017-12-20T11:29:44.544Z,96.74
2017-12-20T11:31:37.478Z,96.94
2017-12-20T11:32:37.498Z,97.13
2017-12-20T11:34:30.455Z,97.13
2017-12-20T11:35:30.453Z,97.03
2017-12-20T11:37:23.390Z,97.13
2017-12-20T11:38:23.411Z,97.13
2017-12-20T11:40:16.362Z,97.22
2017-12-20T11:41:16.389Z,96.94
2017-12-20T11:43:09.837Z,96.84
2017-12-20T11:44:09.872Z,96.74
2017-12-20T11:46:03.292Z,97.03
2017-12-20T11:47:03.298Z,96.46
2017-12-20T11:48:56.246Z,96.55
2017-12-20T11:49:56.247Z,96.36
2017-12-20T11:51:49.182Z,96.36
2017-12-20T11:52:49.203Z,96.55
2017-12-20T11:54:42.166Z,96.46
2017-12-20T11:55:42.186Z,96.26
2017-12-20T11:57:35.602Z,96.08
2017-12-20T11:58:35.623Z,95.84
2017-12-20T12:00:28.576Z,96.03
2017-12-20T12:01:28.578Z,96.03
2017-12-20T12:03:22.593Z,95.84
2017-12-20T12:04:22.559Z,96.03
2017-12-20T12:06:15.493Z,95.84
2017-12-20T12:07:15.512Z,95.36
2017-12-20T12:09:08.461Z,95.41
2017-12-20T12:10:08.463Z,95.75
2017-12-20T12:12:01.401Z,95.56
2017-12-20T12:13:01.424Z,95.56
2017-12-20T12:14:54.372Z,94.79
2017-12-20T12:15:54.374Z,94.70
2017-12-20T12:17:47.308Z,95.46
2017-12-20T12:18:47.328Z,95.27
2017-12-20T12:20:40.388Z,95.46
2017-12-20T12:21:40.385Z,95.17
2017-12-20T12:23:33.343Z,95.84
2017-12-20T12:24:33.340Z,95.46
2017-12-20T12:26:26.290Z,94.79
2017-12-20T12:27:26.292Z,94.89
2017-12-20T12:29:19.245Z,94.60
2017-12-20T12:30:19.334Z,94.60
2017-12-20T12:32:12.183Z,93.94
2017-12-20T12:33:12.228Z,94.03
2017-12-20T12:35:05.666Z,94.70
2017-12-20T12:36:05.692Z,94.32
2017-12-20T12:38:08.569Z,94.42
2017-12-20T12:39:08.642Z,94.22
2017-12-20T12:41:01.566Z,93.65
2017-12-20T12:42:01.537Z,93.65
2017-12-20T12:43:54.442Z,93.94
2017-12-20T12:44:54.485Z,94.42
2017-12-20T12:46:47.384Z,94.03
2017-12-20T12:47:47.400Z,94.13
2017-12-20T12:49:40.332Z,94.03
2017-12-20T12:50:40.302Z,94.22
2017-12-20T12:52:33.229Z,94.32
2017-12-20T12:53:33.350Z,93.84
2017-12-20T12:55:26.138Z,94.03
2017-12-20T12:56:26.169Z,94.22
2017-12-20T12:58:19.070Z,94.42
2017-12-20T12:59:19.062Z,94.70
2017-12-20T13:01:11.981Z,94.13
2017-12-20T13:02:12.000Z,94.42
2017-12-20T13:04:04.882Z,93.94
2017-12-20T13:05:04.901Z,94.32
2017-12-20T13:06:57.927Z,94.03
2017-12-20T13:07:57.823Z,94.22
2017-12-20T13:09:50.722Z,94.42
2017-12-20T13:10:50.742Z,94.60
2017-12-20T13:12:43.663Z,94.70
2017-12-20T13:13:43.666Z,94.51
2017-12-20T13:15:36.728Z,94.22
2017-12-20T13:16:36.585Z,94.32
2017-12-20T13:18:29.485Z,94.89
2017-12-20T13:19:29.505Z,94.89
2017-12-20T13:21:22.427Z,95.08
2017-12-20T13:22:22.428Z,95.08
2017-12-20T13:24:15.336Z,95.56
2017-12-20T13:25:15.356Z,95.84
2017-12-20T13:27:08.274Z,95.56
2017-12-20T13:28:08.274Z,95.65
2017-12-20T13:30:01.180Z,95.46
2017-12-20T13:31:01.219Z,95.65
2017-12-20T13:32:54.126Z,95.36
2017-12-20T13:33:54.132Z,95.36
2017-12-20T13:35:47.049Z,95.75
2017-12-20T13:36:47.046Z,95.56
2017-12-20T13:38:39.945Z,95.36
2017-12-20T13:39:39.994Z,95.56
2017-12-20T13:41:32.893Z,95.65
2017-12-20T13:42:32.889Z,95.46
2017-12-20T13:44:25.793Z,95.46
2017-12-20T13:45:25.871Z,95.46
2017-12-20T13:47:18.771Z,95.56
2017-12-20T13:48:18.731Z,95.46
2017-12-20T13:50:11.727Z,95.75
2017-12-20T13:51:11.654Z,95.65
2017-12-20T13:53:04.589Z,95.46
2017-12-20T13:54:04.570Z,95.84
2017-12-20T13:55:57.494Z,96.03
2017-12-20T13:56:57.489Z,95.65
2017-12-20T13:58:50.402Z,95.65
2017-12-20T13:59:50.404Z,95.65
2017-12-20T14:01:43.386Z,95.65
2017-12-20T14:02:43.331Z,95.56
2017-12-20T14:04:36.238Z,95.84
2017-12-20T14:05:36.283Z,95.56
2017-12-20T14:07:29.251Z,95.65
2017-12-20T14:08:29.177Z,95.46
2017-12-20T14:10:22.105Z,95.46
2017-12-20T14:11:22.151Z,95.65
2017-12-20T14:13:15.067Z,95.56
2017-12-20T14:14:15.068Z,95.65
2017-12-20T14:16:08.180Z,95.56
2017-12-20T14:17:08.214Z,95.46
2017-12-20T14:19:01.111Z,95.36
2017-12-20T14:20:01.131Z,95.56
2017-12-20T14:21:54.330Z,95.65
2017-12-20T14:22:54.209Z,95.27
2017-12-20T14:24:47.554Z,95.36
2017-12-20T14:25:47.691Z,95.36
2017-12-20T14:27:40.585Z,95.36
2017-12-20T14:28:40.525Z,95.36
2017-12-20T14:30:33.430Z,95.46
2017-12-20T14:31:33.453Z,95.56
2017-12-20T14:33:26.375Z,95.56
2017-12-20T14:34:26.376Z,95.46
2017-12-20T14:36:19.312Z,95.46
2017-12-20T14:37:19.304Z,95.56
2017-12-20T14:39:12.246Z,95.36
2017-12-20T14:40:12.276Z,95.65
2017-12-20T14:42:05.702Z,95.46
2017-12-20T14:43:05.717Z,95.75
2017-12-20T14:44:58.606Z,95.36
2017-12-20T14:45:58.629Z,95.36
2017-12-20T14:47:52.058Z,95.46
2017-12-20T14:48:52.056Z,95.46
2017-12-20T14:50:45.063Z,95.84
2017-12-20T14:51:45.054Z,95.56
2017-12-20T14:53:37.976Z,95.84
2017-12-20T14:54:37.977Z,96.03
2017-12-20T14:56:30.887Z,95.46
2017-12-20T14:57:30.910Z,95.46
2017-12-20T14:59:23.836Z,95.75
2017-12-20T15:00:23.850Z,95.84
2017-12-20T15:02:16.799Z,95.65
2017-12-20T15:03:16.772Z,95.46
2017-12-20T15:05:09.710Z,95.84
2017-12-20T15:06:09.725Z,95.84
2017-12-20T15:08:02.707Z,95.65
2017-12-20T15:09:02.657Z,95.94
2017-12-20T15:10:55.588Z,96.12
2017-12-20T15:11:55.607Z,95.84
2017-12-20T15:13:48.594Z,95.94
2017-12-20T15:14:48.595Z,96.12
2017-12-20T15:16:41.471Z,95.84
2017-12-20T15:17:41.518Z,95.94
2017-12-20T15:19:34.412Z,95.75
2017-12-20T15:20:34.413Z,95.84
2017-12-20T15:22:27.336Z,96.51
2017-12-20T15:23:27.468Z,96.51
2017-12-20T15:25:20.293Z,96.22
2017-12-20T15:26:20.312Z,96.51
2017-12-20T15:28:13.319Z,96.31
2017-12-20T15:29:13.255Z,96.31
2017-12-20T15:31:06.210Z,96.31
2017-12-20T15:32:06.212Z,96.60
2017-12-20T15:33:59.715Z,96.65
2017-12-20T15:34:59.720Z,96.12
2017-12-20T15:36:53.224Z,96.79
2017-12-20T15:37:53.244Z,96.98
2017-12-20T15:39:46.196Z,97.13
2017-12-20T15:40:46.197Z,97.17
2017-12-20T15:42:39.151Z,96.12
2017-12-20T15:43:39.196Z,96.41
2017-12-20T15:45:32.596Z,96.41
2017-12-20T15:46:32.615Z,96.60
2017-12-20T15:48:25.571Z,96.79
2017-12-20T15:49:25.572Z,96.70
2017-12-20T15:51:18.506Z,96.51
2017-12-20T15:52:18.524Z,96.79
2017-12-20T15:54:11.480Z,96.31
2017-12-20T15:55:11.478Z,96.41
2017-12-20T15:57:04.417Z,97.03
2017-12-20T15:58:04.442Z,97.69
2017-12-20T15:59:57.394Z,97.98
2017-12-20T16:00:57.388Z,98.17
2017-12-20T16:02:50.853Z,98.08
2017-12-20T16:03:50.856Z,97.69
2017-12-20T16:05:43.797Z,97.60
2017-12-20T16:06:43.811Z,98.17
2017-12-20T16:08:36.769Z,97.88
2017-12-20T16:09:36.760Z,97.88
2017-12-20T16:11:29.699Z,98.36
2017-12-20T16:12:29.716Z,98.36
2017-12-20T16:14:22.681Z,98.46
2017-12-20T16:15:22.679Z,98.55
2017-12-20T16:17:15.825Z,98.27
2017-12-20T16:18:15.842Z,98.27
2017-12-20T16:20:08.783Z,98.65
2017-12-20T16:21:08.800Z,98.27
2017-12-20T16:23:02.255Z,98.55
2017-12-20T16:24:02.264Z,98.17
2017-12-20T16:25:55.694Z,98.46
2017-12-20T16:26:55.716Z,98.27
2017-12-20T16:28:48.667Z,98.93
2017-12-20T16:29:48.721Z,98.65
2017-12-20T16:31:41.609Z,98.65
2017-12-20T16:32:41.653Z,98.46
2017-12-20T16:34:34.597Z,98.46
2017-12-20T16:35:34.581Z,98.74
2017-12-20T16:37:27.519Z,98.46
2017-12-20T16:38:27.538Z,98.27
2017-12-20T16:40:20.483Z,98.65
2017-12-20T16:41:20.484Z,97.69
2017-12-20T16:43:13.988Z,97.88
2017-12-20T16:44:13.953Z,97.88
2017-12-20T16:46:06.895Z,98.08
2017-12-20T16:47:06.908Z,97.60
2017-12-20T16:48:59.859Z,97.98
2017-12-20T16:49:59.860Z,98.13
2017-12-20T16:51:54.334Z,97.84
2017-12-20T16:52:54.355Z,98.08
2017-12-20T16:54:47.302Z,97.27
2017-12-20T16:55:47.303Z,97.55
2017-12-20T16:57:40.302Z,97.55
2017-12-20T16:58:40.329Z,97.46
2017-12-20T17:00:40.998Z,97.17
2017-12-20T17:01:40.999Z,96.70
2017-12-20T17:03:33.965Z,97.55
2017-12-20T17:04:33.952Z,97.55
2017-12-20T17:06:26.887Z,96.98
2017-12-20T17:07:26.908Z,96.98
2017-12-20T17:09:19.856Z,97.36
2017-12-20T17:10:19.857Z,96.89
2017-12-20T17:12:12.792Z,96.84
2017-12-20T17:13:12.812Z,96.79
2017-12-20T17:15:06.276Z,97.31
2017-12-20T17:16:06.277Z,97.50
2017-12-20T17:17:59.212Z,97.50
2017-12-20T17:18:59.232Z,97.22
2017-12-20T17:20:52.184Z,96.84
2017-12-20T17:21:52.188Z,97.13
2017-12-20T17:23:45.142Z,96.60
2017-12-20T17:24:45.142Z,97.36
2017-12-20T17:26:38.084Z,96.70
2017-12-20T17:27:38.094Z,96.94
2017-12-20T17:29:41.132Z,97.46
2017-12-20T17:30:41.142Z,96.84
2017-12-20T17:32:34.026Z,97.17
2017-12-20T17:33:34.055Z,97.13
2017-12-20T17:35:27.019Z,97.55
2017-12-20T17:36:26.969Z,96.98
2017-12-20T17:38:19.867Z,97.41
2017-12-20T17:39:19.887Z,97.55
2017-12-20T17:41:12.803Z,97.31
2017-12-20T17:42:12.806Z,96.94
2017-12-20T17:44:05.724Z,96.89
2017-12-20T17:45:05.723Z,96.65
2017-12-20T17:46:58.622Z,96.55
2017-12-20T17:47:58.641Z,97.13
2017-12-20T17:49:51.561Z,97.22
2017-12-20T17:50:51.557Z,97.41
2017-12-20T17:52:44.456Z,96.55
2017-12-20T17:53:44.476Z,96.55
2017-12-20T17:55:37.412Z,97.13
2017-12-20T17:56:37.402Z,97.22
2017-12-20T17:58:30.304Z,97.41
2017-12-20T17:59:30.324Z,97.79
2017-12-20T18:01:23.242Z,97.69
2017-12-20T18:02:23.241Z,97.60
2017-12-20T18:04:16.162Z,97.65
2017-12-20T18:05:16.161Z,97.50
2017-12-20T18:07:09.060Z,97.50
2017-12-20T18:08:09.077Z,97.41
2017-12-20T18:10:02.003Z,97.50
2017-12-20T18:11:01.997Z,97.60
2017-12-20T18:12:54.899Z,97.50
2017-12-20T18:13:54.917Z,97.79
2017-12-20T18:15:47.835Z,97.60
2017-12-20T18:16:47.835Z,97.31
2017-12-20T18:18:40.732Z,97.88
2017-12-20T18:19:40.751Z,97.50
2017-12-20T18:21:33.672Z,97.60
2017-12-20T18:22:33.670Z,97.31
2017-12-20T18:24:26.587Z,98.46
2017-12-20T18:25:26.590Z,98.36
2017-12-20T18:27:19.489Z,98.93
2017-12-20T18:28:19.507Z,98.65
2017-12-20T18:30:12.430Z,98.74
2017-12-20T18:31:12.428Z,98.83
2017-12-20T18:33:05.370Z,99.31
2017-12-20T18:34:05.348Z,99.31